KDLS

Columbia Gorge Regional / The Dalles Municipal Airport

The Dalles, Oregon, USA
METAR KDLS 201153Z AUTO 00000KT 10SM CLR 01/M01 A3005 RMK AO2 SLP179 T00061006 10022 20006 50005
Observed Flight Rules
Jan-20 @ 11:53 UTC (an hour ago) Visual Flight Rules
Wind Visibility Clouds
Calm 10 miles
  • Clear skies
Temperatures Readings
Current 1°C / 34°F
Dewpoint -1°C / 30°F
Humidity 87%
Altimeter 30.05" Hg
Pressure 1017.9 hPa
Elevation 71
METAR KDLS 201153Z AUTO 00000KT 10SM CLR 01/M01 A3005 RMK AO2 SLP179 T00061006 10022 20006 50005
Observed Flight Rules
Jan-20 @ 11:53 UTC
(an hour ago)
VFR
Wind Visibility
Calm 10 miles
Clouds
  • Clear skies
Temperature Dewpoint
1°C / 34°F -1°C / 30°F
Humidity Altimeter Pressure
87% 30.05" Hg 1017.9 hPa